createdAt,value
2018-12-23T00:01:15.628Z,101552.79
2018-12-23T00:03:43.792Z,101547.53
2018-12-23T00:06:12.012Z,101551.94
2018-12-23T00:08:40.222Z,101550.62
2018-12-23T00:11:08.437Z,101551.75
2018-12-23T00:13:36.602Z,101553.92
2018-12-23T00:16:04.842Z,101550.44
2018-12-23T00:18:33.104Z,101553.89
2018-12-23T00:21:01.339Z,101541.55
2018-12-23T00:23:29.497Z,101554.62
2018-12-23T00:25:57.648Z,101549.83
2018-12-23T00:28:25.928Z,101563.48
2018-12-23T00:30:54.164Z,101558.72
2018-12-23T00:33:22.304Z,101555.20
2018-12-23T00:35:50.440Z,101560.33
2018-12-23T00:38:18.576Z,101565.28
2018-12-23T00:40:46.744Z,101566.11
2018-12-23T00:43:14.900Z,101563.36
2018-12-23T00:45:43.112Z,101562.34
2018-12-23T00:48:11.345Z,101567.61
2018-12-23T00:50:39.568Z,101574.57
2018-12-23T00:53:07.715Z,101571.42
2018-12-23T00:55:35.867Z,101579.30
2018-12-23T00:58:04.073Z,101573.71
2018-12-23T01:00:32.353Z,101576.28
2018-12-23T01:03:00.596Z,101566.63
2018-12-23T01:05:29.119Z,101571.30
2018-12-23T01:07:57.475Z,101572.61
2018-12-23T01:10:25.644Z,101567.36
2018-12-23T01:12:53.858Z,101573.89
2018-12-23T01:15:22.027Z,101570.28
2018-12-23T01:17:50.193Z,101572.00
2018-12-23T01:20:18.417Z,101568.52
2018-12-23T01:22:46.719Z,101566.74
2018-12-23T01:25:14.947Z,101565.82
2018-12-23T01:27:43.104Z,101570.16
2018-12-23T01:30:11.249Z,101569.70
2018-12-23T01:32:39.412Z,101570.86
2018-12-23T01:35:07.809Z,101565.20
2018-12-23T01:37:36.038Z,101565.66
2018-12-23T01:40:04.365Z,101573.55
2018-12-23T01:42:32.607Z,101571.31
2018-12-23T01:45:00.849Z,101563.38
2018-12-23T01:47:29.180Z,101552.80
2018-12-23T01:49:57.349Z,101566.39
2018-12-23T01:52:25.580Z,101564.55
2018-12-23T01:54:53.869Z,101559.03
2018-12-23T01:57:22.086Z,101552.73
2018-12-23T01:59:50.259Z,101551.72
2018-12-23T02:02:18.433Z,101552.11
2018-12-23T02:04:46.590Z,101550.50
2018-12-23T02:07:14.831Z,101552.57
2018-12-23T02:09:43.087Z,101542.91
2018-12-23T02:12:11.406Z,101539.56
2018-12-23T02:14:39.673Z,101541.66
2018-12-23T02:17:07.859Z,101544.29
2018-12-23T02:19:36.153Z,101544.23
2018-12-23T02:22:04.393Z,101544.29
2018-12-23T02:24:32.780Z,101553.82
2018-12-23T02:27:00.977Z,101553.89
2018-12-23T02:29:29.195Z,101550.80
2018-12-23T02:31:57.418Z,101546.23
2018-12-23T02:34:25.652Z,101543.18
2018-12-23T02:36:54.591Z,101544.92
2018-12-23T02:39:22.807Z,101542.75
2018-12-23T02:41:50.970Z,101543.18
2018-12-23T02:44:19.260Z,101541.86
2018-12-23T02:46:47.472Z,101541.83
2018-12-23T02:49:15.642Z,101545.71
2018-12-23T02:51:43.863Z,101547.09
2018-12-23T02:54:12.105Z,101543.08
2018-12-23T02:56:40.286Z,101547.02
2018-12-23T02:59:08.435Z,101551.76
2018-12-23T03:01:36.720Z,101543.48
2018-12-23T03:04:04.956Z,101544.20
2018-12-23T03:06:33.149Z,101543.88
2018-12-23T03:09:01.419Z,101545.05
2018-12-23T03:11:29.729Z,101547.19
2018-12-23T03:13:58.037Z,101545.35
2018-12-23T03:16:26.201Z,101547.12
2018-12-23T03:18:54.428Z,101549.42
2018-12-23T03:21:22.608Z,101546.34
2018-12-23T03:23:50.902Z,101544.50
2018-12-23T03:26:19.083Z,101544.16
2018-12-23T03:28:47.360Z,101549.30
2018-12-23T03:31:15.592Z,101538.78
2018-12-23T03:33:43.739Z,101536.94
2018-12-23T03:36:15.205Z,101532.53
2018-12-23T03:38:42.048Z,101532.08
2018-12-23T03:41:10.364Z,101533.39
2018-12-23T03:43:38.517Z,101527.21
2018-12-23T03:46:06.819Z,101528.95
2018-12-23T03:48:35.684Z,101525.50
2018-12-23T03:51:03.906Z,101521.85
2018-12-23T03:53:32.093Z,101524.55
2018-12-23T03:56:00.359Z,101530.27
2018-12-23T03:58:28.543Z,101534.20
2018-12-23T04:00:56.697Z,101537.17
2018-12-23T04:03:24.878Z,101542.49
2018-12-23T04:05:53.190Z,101542.09
2018-12-23T04:08:21.413Z,101539.50
2018-12-23T04:10:49.661Z,101535.92
2018-12-23T04:13:17.830Z,101538.81
2018-12-23T04:15:45.999Z,101527.17
2018-12-23T04:18:14.381Z,101532.70
2018-12-23T04:20:42.553Z,101540.12
2018-12-23T04:23:10.819Z,101541.44
2018-12-23T04:25:39.063Z,101531.31
2018-12-23T04:28:07.245Z,101532.14
2018-12-23T04:30:35.422Z,101533.91
2018-12-23T04:33:03.569Z,101535.66
2018-12-23T04:35:31.781Z,101528.29
2018-12-23T04:37:59.920Z,101528.59
2018-12-23T04:40:28.073Z,101526.35
2018-12-23T04:42:56.296Z,101535.42
2018-12-23T04:45:24.474Z,101528.45
2018-12-23T04:47:52.650Z,101533.31
2018-12-23T04:50:20.824Z,101534.04
2018-12-23T04:52:48.974Z,101537.03
2018-12-23T04:55:17.109Z,101523.19
2018-12-23T04:57:45.333Z,101526.22
2018-12-23T05:00:20.065Z,101527.07
2018-12-23T05:02:48.305Z,101531.87
2018-12-23T05:05:16.480Z,101530.91
2018-12-23T05:07:44.650Z,101531.24
2018-12-23T05:10:12.889Z,101532.55
2018-12-23T05:12:41.113Z,101526.58
2018-12-23T05:15:09.336Z,101527.89
2018-12-23T05:17:37.484Z,101526.11
2018-12-23T05:20:05.778Z,101526.51
2018-12-23T05:22:34.039Z,101518.62
2018-12-23T05:25:02.196Z,101520.72
2018-12-23T05:27:30.455Z,101520.43
2018-12-23T05:29:58.596Z,101527.30
2018-12-23T05:32:26.743Z,101529.92
2018-12-23T05:34:55.045Z,101531.63
2018-12-23T05:37:23.284Z,101528.31
2018-12-23T05:39:51.426Z,101532.09
2018-12-23T05:42:19.569Z,101522.17
2018-12-23T05:44:47.830Z,101532.79
2018-12-23T05:47:16.072Z,101532.99
2018-12-23T05:49:44.286Z,101537.33
2018-12-23T05:52:19.127Z,101531.31
2018-12-23T05:54:48.470Z,101534.63
2018-12-23T05:57:16.673Z,101540.25
2018-12-23T05:59:44.878Z,101541.05
2018-12-23T06:02:13.069Z,101551.56
2018-12-23T06:04:41.368Z,101551.56
2018-12-23T06:07:09.918Z,101551.43
2018-12-23T06:09:38.834Z,101551.63
2018-12-23T06:12:06.988Z,101549.86
2018-12-23T06:14:35.252Z,101543.67
2018-12-23T06:17:03.525Z,101545.35
2018-12-23T06:19:31.682Z,101549.13
2018-12-23T06:21:59.899Z,101543.81
2018-12-23T06:24:28.278Z,101552.19
2018-12-23T06:26:56.474Z,101555.73
2018-12-23T06:29:24.840Z,101544.59
2018-12-23T06:31:53.057Z,101555.18
2018-12-23T06:34:21.282Z,101558.66
2018-12-23T06:36:49.547Z,101566.88
2018-12-23T06:39:18.096Z,101566.03
2018-12-23T06:41:46.263Z,101563.13
2018-12-23T06:44:14.482Z,101561.39
2018-12-23T06:46:42.678Z,101563.92
2018-12-23T06:49:10.836Z,101556.95
2018-12-23T06:51:39.036Z,101557.05
2018-12-23T06:54:07.198Z,101557.74
2018-12-23T06:56:35.464Z,101557.34
2018-12-23T06:59:03.697Z,101559.98
2018-12-23T07:01:32.008Z,101553.41
2018-12-23T07:04:00.184Z,101555.64
2018-12-23T07:06:28.392Z,101550.88
2018-12-23T07:08:56.548Z,101553.50
2018-12-23T07:11:24.702Z,101551.80
2018-12-23T07:13:52.944Z,101550.88
2018-12-23T07:16:21.211Z,101551.47
2018-12-23T07:18:49.416Z,101554.95
2018-12-23T07:21:17.625Z,101556.27
2018-12-23T07:23:45.886Z,101560.34
2018-12-23T07:26:14.035Z,101555.73
2018-12-23T07:28:42.165Z,101560.60
2018-12-23T07:31:10.333Z,101563.75
2018-12-23T07:33:38.526Z,101561.06
2018-12-23T07:36:06.881Z,101561.45
2018-12-23T07:38:35.040Z,101563.59
2018-12-23T07:41:03.350Z,101567.17
2018-12-23T07:43:31.538Z,101567.17
2018-12-23T07:45:59.690Z,101560.60
2018-12-23T07:48:27.927Z,101567.08
2018-12-23T07:50:56.147Z,101572.04
2018-12-23T07:53:24.315Z,101571.12
2018-12-23T07:55:52.490Z,101575.30
2018-12-23T07:58:20.749Z,101574.44
2018-12-23T08:00:48.909Z,101568.72
2018-12-23T08:03:17.068Z,101561.69
2018-12-23T08:05:45.257Z,101564.45
2018-12-23T08:08:13.539Z,101566.48
2018-12-23T08:10:41.780Z,101573.78
2018-12-23T08:13:09.993Z,101571.75
2018-12-23T08:15:38.153Z,101575.23
2018-12-23T08:18:06.486Z,101566.36
2018-12-23T08:20:34.699Z,101565.89
2018-12-23T08:23:09.466Z,101563.70
2018-12-23T08:25:37.714Z,101557.91
2018-12-23T08:28:05.890Z,101564.35
2018-12-23T08:30:34.110Z,101565.66
2018-12-23T08:33:02.262Z,101559.29
2018-12-23T08:35:30.439Z,101559.16
2018-12-23T08:37:58.865Z,101552.91
2018-12-23T08:40:27.106Z,101562.87
2018-12-23T08:42:55.381Z,101556.82
2018-12-23T08:45:23.609Z,101561.20
2018-12-23T08:47:51.877Z,101564.25
2018-12-23T08:50:20.101Z,101558.07
2018-12-23T08:52:48.362Z,101557.15
2018-12-23T08:55:16.508Z,101553.98
2018-12-23T08:57:44.892Z,101553.73
2018-12-23T09:00:13.054Z,101557.38
2018-12-23T09:02:41.277Z,101562.96
2018-12-23T09:05:11.045Z,101562.17
2018-12-23T09:07:39.285Z,101568.62
2018-12-23T09:10:09.845Z,101568.23
2018-12-23T09:12:39.566Z,101565.69
2018-12-23T09:15:10.096Z,101568.09
2018-12-23T09:17:40.314Z,101568.48
2018-12-23T09:20:10.068Z,101579.00
2018-12-23T09:22:38.382Z,101571.12
2018-12-23T09:25:10.218Z,101567.30
2018-12-23T09:27:38.454Z,101572.03
2018-12-23T09:30:06.902Z,101572.72
2018-12-23T09:32:35.086Z,101563.13
2018-12-23T09:35:03.382Z,101570.48
2018-12-23T09:37:31.538Z,101566.67
2018-12-23T09:39:59.719Z,101563.62
2018-12-23T09:42:27.891Z,101566.22
2018-12-23T09:44:56.136Z,101556.08
2018-12-23T09:47:24.305Z,101552.92
2018-12-23T09:49:52.607Z,101552.06
2018-12-23T09:52:20.799Z,101555.31
2018-12-23T09:54:48.933Z,101563.45
2018-12-23T09:57:17.198Z,101559.96
2018-12-23T09:59:45.382Z,101549.97
2018-12-23T10:02:13.672Z,101550.23
2018-12-23T10:04:41.958Z,101551.93
2018-12-23T10:07:10.184Z,101545.03
2018-12-23T10:09:38.401Z,101541.68
2018-12-23T10:12:06.659Z,101541.25
2018-12-23T10:14:34.873Z,101539.29
2018-12-23T10:17:03.208Z,101539.98
2018-12-23T10:19:31.344Z,101539.22
2018-12-23T10:21:59.629Z,101541.00
2018-12-23T10:24:27.860Z,101537.97
2018-12-23T10:26:56.941Z,101539.94
2018-12-23T10:29:25.099Z,101536.91
2018-12-23T10:32:02.778Z,101532.05
2018-12-23T10:34:33.058Z,101525.47
2018-12-23T10:37:01.143Z,101522.41
2018-12-23T10:39:29.440Z,101518.79
2018-12-23T10:41:57.587Z,101509.03
2018-12-23T10:44:25.816Z,101512.98
2018-12-23T10:46:54.046Z,101518.24
2018-12-23T10:49:22.357Z,101506.66
2018-12-23T10:51:50.617Z,101509.96
2018-12-23T10:54:18.767Z,101515.47
2018-12-23T10:56:46.928Z,101515.94
2018-12-23T10:59:15.112Z,101515.47
2018-12-23T11:01:43.540Z,101519.81
2018-12-23T11:04:11.929Z,101515.70
2018-12-23T11:06:40.895Z,101508.44
2018-12-23T11:09:09.358Z,101503.72
2018-12-23T11:11:38.575Z,101490.70
2018-12-23T11:14:06.885Z,101496.81
2018-12-23T11:16:35.896Z,101491.55
2018-12-23T11:19:04.157Z,101496.68
2018-12-23T11:21:33.286Z,101484.98
2018-12-23T11:24:01.515Z,101479.33
2018-12-23T11:26:29.699Z,101486.55
2018-12-23T11:28:58.024Z,101484.45
2018-12-23T11:31:26.967Z,101485.38
2018-12-23T11:33:55.299Z,101485.23
2018-12-23T11:36:24.481Z,101482.21
2018-12-23T11:38:52.781Z,101474.28
2018-12-23T11:41:21.150Z,101471.36
2018-12-23T11:43:49.399Z,101470.33
2018-12-23T11:46:17.711Z,101476.91
2018-12-23T11:48:45.989Z,101457.81
2018-12-23T11:51:15.067Z,101458.50
2018-12-23T11:53:43.358Z,101467.73
2018-12-23T11:56:11.721Z,101461.05
2018-12-23T11:58:39.886Z,101457.95
2018-12-23T12:01:08.210Z,101454.48
2018-12-23T12:03:36.538Z,101455.44
2018-12-23T12:06:04.852Z,101458.03
2018-12-23T12:08:33.049Z,101455.33
2018-12-23T12:11:01.318Z,101457.81
2018-12-23T12:13:29.569Z,101454.87
2018-12-23T12:15:57.816Z,101456.64
2018-12-23T12:18:25.968Z,101457.61
2018-12-23T12:20:54.185Z,101466.70
2018-12-23T12:23:23.554Z,101465.00
2018-12-23T12:25:51.861Z,101454.98
2018-12-23T12:28:20.198Z,101457.22
2018-12-23T12:30:48.367Z,101459.84
2018-12-23T12:33:16.616Z,101458.14
2018-12-23T12:35:44.903Z,101453.27
2018-12-23T12:38:13.168Z,101452.88
2018-12-23T12:40:41.462Z,101461.05
2018-12-23T12:43:09.755Z,101456.82
2018-12-23T12:45:38.080Z,101445.98
2018-12-23T12:48:06.341Z,101449.92
2018-12-23T12:50:34.556Z,101437.16
2018-12-23T12:53:22.832Z,101435.67
2018-12-23T12:55:51.071Z,101436.98
2018-12-23T12:58:21.490Z,101441.43
2018-12-23T13:00:49.698Z,101441.43
2018-12-23T13:03:17.898Z,101436.91
2018-12-23T13:05:46.244Z,101429.45
2018-12-23T13:08:14.472Z,101434.46
2018-12-23T13:10:42.764Z,101440.79
2018-12-23T13:13:10.955Z,101432.29
2018-12-23T13:15:39.223Z,101433.50
2018-12-23T13:18:07.475Z,101423.94
2018-12-23T13:20:35.651Z,101427.49
2018-12-23T13:23:04.018Z,101420.27
2018-12-23T13:25:32.322Z,101411.56
2018-12-23T13:30:53.298Z,101415.80
2018-12-23T13:33:21.577Z,101421.59
2018-12-23T13:35:49.741Z,101419.99
2018-12-23T13:38:17.977Z,101424.16
2018-12-23T13:43:03.078Z,101425.50
2018-12-23T13:47:48.107Z,101433.92
2018-12-23T13:50:52.244Z,101432.08
2018-12-23T13:53:31.681Z,101426.11
2018-12-23T13:58:15.007Z,101429.20
2018-12-23T14:00:51.826Z,101422.38
2018-12-23T14:03:31.086Z,101419.06
2018-12-23T14:06:13.215Z,101411.00
2018-12-23T14:08:50.304Z,101411.84
2018-12-23T14:11:28.513Z,101402.75
2018-12-23T14:13:56.801Z,101392.23
2018-12-23T14:16:24.952Z,101400.80
2018-12-23T14:18:53.120Z,101390.52
2018-12-23T14:21:21.280Z,101382.89
2018-12-23T14:23:49.531Z,101384.94
2018-12-23T14:26:17.737Z,101385.52
2018-12-23T14:28:45.912Z,101383.34
2018-12-23T14:31:14.364Z,101385.94
2018-12-23T14:33:42.570Z,101374.89
2018-12-23T14:36:10.892Z,101378.83
2018-12-23T14:38:39.085Z,101380.53
2018-12-23T14:41:07.247Z,101374.60
2018-12-23T14:43:35.496Z,101381.56
2018-12-23T14:46:03.865Z,101375.80
2018-12-23T14:48:32.739Z,101372.11
2018-12-23T14:51:00.914Z,101374.60
2018-12-23T14:53:29.601Z,101375.66
2018-12-23T14:55:57.856Z,101365.40
2018-12-23T14:58:26.021Z,101366.60
2018-12-23T15:00:54.307Z,101371.05
2018-12-23T15:03:22.688Z,101366.00
2018-12-23T15:05:50.960Z,101372.11
2018-12-23T15:08:20.230Z,101366.32
2018-12-23T15:10:48.388Z,101366.98
2018-12-23T15:13:17.988Z,101361.59
2018-12-23T15:15:46.425Z,101362.91
2018-12-23T15:18:14.619Z,101355.16
2018-12-23T15:20:42.890Z,101350.16
2018-12-23T15:23:11.183Z,101351.08
2018-12-23T15:25:39.420Z,101349.16
2018-12-23T15:28:07.653Z,101342.52
2018-12-23T15:30:35.814Z,101337.00
2018-12-23T15:33:04.033Z,101326.09
2018-12-23T15:35:32.393Z,101323.14
2018-12-23T15:38:00.864Z,101329.89
2018-12-23T15:40:29.011Z,101323.06
2018-12-23T15:42:57.174Z,101313.01
2018-12-23T15:45:25.322Z,101313.08
2018-12-23T15:47:53.655Z,101313.64
2018-12-23T15:56:14.289Z,101303.34
2018-12-23T15:58:46.992Z,101301.37
2018-12-23T16:01:17.992Z,101311.48
2018-12-23T16:03:48.908Z,101305.63
2018-12-23T16:06:19.452Z,101301.50
2018-12-23T16:08:53.423Z,101292.30
2018-12-23T16:11:27.093Z,101297.02
2018-12-23T16:13:55.948Z,101302.67
2018-12-23T16:16:26.734Z,101300.25
2018-12-23T16:18:57.357Z,101295.66
2018-12-23T16:21:27.268Z,101290.97
2018-12-23T16:23:56.207Z,101291.44
2018-12-23T16:26:27.864Z,101299.14
2018-12-23T16:28:58.051Z,101304.40
2018-12-23T16:31:28.397Z,101311.87
2018-12-23T16:34:01.701Z,101305.70
2018-12-23T16:36:33.823Z,101311.81
2018-12-23T16:39:02.563Z,101314.90
2018-12-23T16:41:32.743Z,101308.40
2018-12-23T17:01:20.091Z,101304.52
2018-12-23T17:03:49.245Z,101295.77
2018-12-23T17:06:23.491Z,101289.52
2018-12-23T17:08:52.809Z,101292.36
2018-12-23T17:11:21.178Z,101287.95
2018-12-23T17:13:49.385Z,101284.01
2018-12-23T17:16:18.791Z,101284.47
2018-12-23T17:18:47.107Z,101287.23
2018-12-23T17:21:15.361Z,101288.27
2018-12-23T17:23:43.611Z,101288.27
2018-12-23T17:26:11.887Z,101290.66
2018-12-23T17:28:40.140Z,101295.70
2018-12-23T17:31:08.487Z,101289.34
2018-12-23T17:33:36.781Z,101301.82
2018-12-23T17:36:05.444Z,101286.25
2018-12-23T17:38:33.754Z,101274.02
2018-12-23T17:41:02.163Z,101272.11
2018-12-23T17:43:30.413Z,101282.69
2018-12-23T17:45:58.729Z,101288.36
2018-12-23T17:48:27.008Z,101289.47
2018-12-23T17:50:55.692Z,101284.02
2018-12-23T17:53:23.896Z,101286.12
2018-12-23T17:55:52.236Z,101286.92
2018-12-23T17:58:20.608Z,101285.20
2018-12-23T18:00:48.776Z,101280.58
2018-12-23T18:03:17.056Z,101276.58
2018-12-23T18:05:45.398Z,101277.24
2018-12-23T18:08:51.602Z,101280.98
2018-12-23T18:11:20.143Z,101271.67
2018-12-23T18:13:49.631Z,101276.40
2018-12-23T18:16:18.023Z,101271.92
2018-12-23T18:18:46.272Z,101270.75
2018-12-23T18:21:14.529Z,101270.81
2018-12-23T18:23:42.782Z,101269.55
2018-12-23T18:26:12.120Z,101267.52
2018-12-23T18:28:40.359Z,101271.40
2018-12-23T18:31:08.684Z,101272.44
2018-12-23T18:33:37.295Z,101263.38
2018-12-23T18:36:05.567Z,101263.23
2018-12-23T18:38:33.778Z,101266.39
2018-12-23T18:41:01.973Z,101252.08
2018-12-23T18:43:30.132Z,101259.69
2018-12-23T18:45:58.334Z,101263.77
2018-12-23T18:48:26.553Z,101260.56
2018-12-23T18:50:54.768Z,101261.28
2018-12-23T18:53:23.017Z,101266.08
2018-12-23T18:55:51.214Z,101273.04
2018-12-23T18:58:19.597Z,101276.06
2018-12-23T19:00:51.246Z,101271.40
2018-12-23T19:03:19.497Z,101280.45
2018-12-23T19:05:47.640Z,101274.67
2018-12-23T19:08:20.324Z,101280.07
2018-12-23T19:11:58.238Z,101274.63
2018-12-23T19:15:12.911Z,101287.95
2018-12-23T19:17:54.287Z,101279.53
2018-12-23T19:21:14.930Z,101278.47
2018-12-23T19:23:58.392Z,101282.55
2018-12-23T19:26:56.624Z,101284.19
2018-12-23T19:29:42.786Z,101279.22
2018-12-23T19:32:24.013Z,101285.25
2018-12-23T19:35:03.064Z,101283.73
2018-12-23T19:37:42.804Z,101277.83
2018-12-23T19:42:40.581Z,101281.98
2018-12-23T19:45:50.889Z,101278.75
2018-12-23T19:49:30.871Z,101274.59
2018-12-23T19:52:10.356Z,101275.77
2018-12-23T19:56:10.738Z,101277.16
2018-12-23T19:59:00.144Z,101288.38
2018-12-23T20:03:43.778Z,101295.30
2018-12-23T20:06:39.996Z,101292.92
2018-12-23T20:09:21.564Z,101293.28
2018-12-23T20:12:03.732Z,101292.92
2018-12-23T20:14:58.869Z,101297.25
2018-12-23T20:17:38.497Z,101293.45
2018-12-23T20:20:26.146Z,101303.64
2018-12-23T20:23:07.740Z,101296.39
2018-12-23T20:26:46.012Z,101293.52
2018-12-23T20:31:43.849Z,101293.38
2018-12-23T20:34:38.381Z,101304.95
2018-12-23T20:37:18.548Z,101306.97
2018-12-23T20:40:03.710Z,101310.60
2018-12-23T20:42:43.061Z,101309.00
2018-12-23T20:45:28.159Z,101309.75
2018-12-23T20:49:05.159Z,101317.50
2018-12-23T20:51:44.786Z,101314.48
2018-12-23T20:54:22.996Z,101312.09
2018-12-23T20:57:20.429Z,101310.60
2018-12-23T21:00:02.653Z,101316.03
2018-12-23T21:02:42.292Z,101311.98
2018-12-23T21:06:25.565Z,101316.88
2018-12-23T21:09:04.850Z,101315.00
2018-12-23T21:11:46.165Z,101326.61
2018-12-23T21:14:26.608Z,101329.47
2018-12-23T21:17:12.500Z,101334.94
2018-12-23T21:19:56.400Z,101335.73
2018-12-23T21:25:00.338Z,101340.03
2018-12-23T21:28:44.394Z,101341.67
2018-12-23T21:31:32.256Z,101346.86
2018-12-23T21:36:14.384Z,101343.91
2018-12-23T21:39:57.321Z,101357.90
2018-12-23T21:43:12.073Z,101358.62
2018-12-23T21:45:52.740Z,101364.41
2018-12-23T21:48:37.945Z,101371.50
2018-12-23T21:51:50.390Z,101370.97
2018-12-23T21:54:31.777Z,101371.34
2018-12-23T21:57:47.094Z,101371.58
2018-12-23T22:00:38.317Z,101377.62
2018-12-23T22:04:14.257Z,101375.91
2018-12-23T22:09:05.916Z,101380.05
2018-12-23T22:11:43.820Z,101385.86
2018-12-23T22:14:11.986Z,101389.70
2018-12-23T22:16:42.170Z,101382.67
2018-12-23T22:19:10.377Z,101387.27
2018-12-23T22:21:43.227Z,101393.09
2018-12-23T22:24:11.766Z,101393.94
2018-12-23T22:26:39.913Z,101401.81
2018-12-23T22:29:43.152Z,101395.42
2018-12-23T22:32:11.945Z,101402.02
2018-12-23T22:34:41.113Z,101405.17
2018-12-23T22:37:12.030Z,101404.61
2018-12-23T22:39:45.215Z,101412.48
2018-12-23T22:42:15.551Z,101407.23
2018-12-23T22:44:44.384Z,101412.38
2018-12-23T22:47:13.464Z,101413.23
2018-12-23T22:49:45.041Z,101422.20
2018-12-23T22:52:13.909Z,101417.56
2018-12-23T22:54:42.698Z,101420.86
2018-12-23T22:57:11.472Z,101417.80
2018-12-23T22:59:40.337Z,101434.30
2018-12-23T23:02:09.115Z,101426.37
2018-12-23T23:04:38.067Z,101440.58
2018-12-23T23:07:06.842Z,101448.12
2018-12-23T23:09:35.986Z,101444.18
2018-12-23T23:12:04.764Z,101458.31
2018-12-23T23:14:33.670Z,101464.67
2018-12-23T23:17:02.582Z,101467.62
2018-12-23T23:19:31.486Z,101473.83
2018-12-23T23:22:00.730Z,101478.73
2018-12-23T23:24:29.944Z,101471.03
2018-12-23T23:26:59.087Z,101477.11
2018-12-23T23:29:52.902Z,101483.16
2018-12-23T23:32:21.713Z,101486.45
2018-12-23T23:34:50.681Z,101484.06
2018-12-23T23:37:19.553Z,101488.20
2018-12-23T23:39:48.389Z,101492.16
2018-12-23T23:42:17.195Z,101500.02
2018-12-23T23:45:00.926Z,101502.47
2018-12-23T23:50:21.449Z,101513.62
2018-12-23T23:52:50.249Z,101512.64
2018-12-23T23:55:18.995Z,101517.67
2018-12-23T23:57:47.863Z,101517.75
